createdAt,value
2023-09-09T00:01:35.849Z,98041.91
2023-09-09T00:04:07.024Z,98034.34
2023-09-09T00:06:37.289Z,98030.53
2023-09-09T00:09:10.312Z,98026.81
2023-09-09T00:11:40.803Z,98026.81
2023-09-09T00:14:13.738Z,98022.28
2023-09-09T00:16:43.990Z,98027.16
2023-09-09T00:19:14.419Z,98025.09
2023-09-09T00:21:46.468Z,98022.41
2023-09-09T00:24:16.694Z,98019.84
2023-09-09T00:26:46.928Z,98022.81
2023-09-09T00:29:19.882Z,98021.28
2023-09-09T00:31:51.426Z,98017.84
2023-09-09T00:34:21.920Z,98018.03
2023-09-09T00:36:55.006Z,98015.56
2023-09-09T00:39:25.232Z,98013.63
2023-09-09T00:41:55.556Z,98014.91
2023-09-09T00:44:28.496Z,98018.59
2023-09-09T00:46:59.273Z,98017.50
2023-09-09T00:49:29.691Z,98018.38
2023-09-09T00:52:00.377Z,98007.88
2023-09-09T00:54:30.633Z,98010.41
2023-09-09T00:57:02.044Z,98012.16
2023-09-09T00:59:34.905Z,98013.69
2023-09-09T01:02:05.650Z,98015.19
2023-09-09T01:04:37.364Z,98016.81
2023-09-09T01:07:08.599Z,98007.50
2023-09-09T01:09:38.941Z,98008.16
2023-09-09T01:12:13.407Z,98006.97
2023-09-09T01:14:46.815Z,98011.31
2023-09-09T01:17:17.326Z,98012.28
2023-09-09T01:19:47.666Z,98012.59
2023-09-09T01:22:23.042Z,98010.63
2023-09-09T01:24:55.633Z,98018.00
2023-09-09T01:27:25.880Z,98007.50
2023-09-09T01:29:56.144Z,98010.78
2023-09-09T01:32:26.455Z,98007.84
2023-09-09T01:34:56.852Z,98006.88
2023-09-09T01:37:29.805Z,98005.44
2023-09-09T01:40:05.636Z,98012.19
2023-09-09T01:42:35.932Z,98007.19
2023-09-09T01:45:07.018Z,98002.22
2023-09-09T01:47:37.532Z,98010.34
2023-09-09T01:50:08.564Z,98013.06
2023-09-09T01:52:41.476Z,98011.53
2023-09-09T01:55:12.015Z,98011.28
2023-09-09T01:57:45.728Z,98012.66
2023-09-09T02:00:17.029Z,98014.16
2023-09-09T02:02:47.576Z,98008.22
2023-09-09T02:05:18.311Z,98009.38
2023-09-09T02:07:51.264Z,98000.16
2023-09-09T02:10:21.936Z,98004.75
2023-09-09T02:12:53.745Z,98005.31
2023-09-09T02:15:24.030Z,98001.53
2023-09-09T02:17:55.077Z,97995.59
2023-09-09T02:20:25.370Z,98002.38
2023-09-09T02:22:59.599Z,98001.50
2023-09-09T02:25:30.900Z,98000.84
2023-09-09T02:28:01.161Z,98002.56
2023-09-09T02:30:31.492Z,98006.84
2023-09-09T02:33:01.891Z,98008.22
2023-09-09T02:35:32.281Z,98016.84
2023-09-09T02:38:05.295Z,98027.44
2023-09-09T02:40:37.758Z,98019.59
2023-09-09T02:43:12.340Z,98019.47
2023-09-09T02:45:42.718Z,98021.59
2023-09-09T02:48:13.120Z,98015.72
2023-09-09T02:50:44.791Z,98015.97
2023-09-09T02:53:17.749Z,98009.94
2023-09-09T02:55:48.104Z,98017.50
2023-09-09T02:58:18.556Z,98017.03
2023-09-09T03:00:49.694Z,98018.41
2023-09-09T03:03:21.946Z,98007.00
2023-09-09T03:05:52.515Z,98020.06
2023-09-09T03:08:25.483Z,98018.78
2023-09-09T03:10:56.957Z,98016.34
2023-09-09T03:13:28.889Z,98016.50
2023-09-09T03:15:59.289Z,98009.16
2023-09-09T03:18:30.052Z,98023.25
2023-09-09T03:21:00.359Z,98026.91
2023-09-09T03:23:33.188Z,98024.38
2023-09-09T03:26:03.451Z,98022.88
2023-09-09T03:28:33.671Z,98023.66
2023-09-09T03:31:04.536Z,98019.69
2023-09-09T03:33:35.046Z,98021.53
2023-09-09T03:36:05.451Z,98026.44
2023-09-09T03:38:38.368Z,98025.94
2023-09-09T03:41:09.427Z,98024.78
2023-09-09T03:43:42.287Z,98020.00
2023-09-09T03:46:13.103Z,98021.56
2023-09-09T03:48:43.492Z,98023.13
2023-09-09T03:51:13.836Z,98025.00
2023-09-09T03:53:46.950Z,98025.56
2023-09-09T03:56:17.347Z,98027.41
2023-09-09T03:58:47.695Z,98020.25
2023-09-09T04:01:18.086Z,98019.19
2023-09-09T04:03:48.817Z,98016.44
2023-09-09T04:06:21.265Z,98015.22
2023-09-09T04:08:57.644Z,98021.13
2023-09-09T04:11:28.676Z,98015.81
2023-09-09T04:14:00.954Z,98019.13
2023-09-09T04:16:31.770Z,98011.78
2023-09-09T04:19:02.066Z,98013.81
2023-09-09T04:21:32.385Z,98025.53
2023-09-09T04:24:05.313Z,98018.66
2023-09-09T04:26:36.500Z,98019.69
2023-09-09T04:29:06.933Z,98020.75
2023-09-09T04:31:37.292Z,98022.31
2023-09-09T04:34:08.293Z,98026.13
2023-09-09T04:36:38.603Z,98022.34
2023-09-09T04:39:14.945Z,98015.22
2023-09-09T04:41:45.665Z,98018.81
2023-09-09T04:44:17.113Z,98019.59
2023-09-09T04:46:47.504Z,98023.91
2023-09-09T04:49:18.757Z,98025.22
2023-09-09T04:51:50.324Z,98020.38
2023-09-09T04:54:23.168Z,98030.63
2023-09-09T04:56:53.355Z,98027.81
2023-09-09T04:59:23.574Z,98022.97
2023-09-09T05:01:54.116Z,98034.94
2023-09-09T05:04:24.450Z,98021.91
2023-09-09T05:06:55.142Z,98020.38
2023-09-09T05:09:28.447Z,98025.00
2023-09-09T05:11:58.779Z,98026.28
2023-09-09T05:14:29.135Z,98021.69
2023-09-09T05:16:59.497Z,98026.50
2023-09-09T05:19:29.819Z,98033.06
2023-09-09T05:22:00.191Z,98032.50
2023-09-09T05:24:35.195Z,98028.81
2023-09-09T05:27:06.216Z,98031.78
2023-09-09T05:29:37.022Z,98035.50
2023-09-09T05:32:08.950Z,98034.84
2023-09-09T05:34:39.499Z,98034.72
2023-09-09T05:37:09.688Z,98037.69
2023-09-09T05:39:42.521Z,98038.84
2023-09-09T05:42:12.717Z,98035.09
2023-09-09T05:44:42.964Z,98042.09
2023-09-09T05:47:13.320Z,98039.19
2023-09-09T05:49:43.938Z,98033.22
2023-09-09T05:52:14.268Z,98033.28
2023-09-09T05:54:48.776Z,98034.91
2023-09-09T05:57:19.315Z,98041.13
2023-09-09T05:59:50.171Z,98035.88
2023-09-09T06:02:22.229Z,98038.00
2023-09-09T06:04:53.183Z,98041.91
2023-09-09T06:07:24.001Z,98027.22
2023-09-09T06:12:27.029Z,98031.75
2023-09-09T06:14:58.316Z,98029.66
2023-09-09T06:17:29.779Z,98033.66
2023-09-09T06:20:00.064Z,98032.56
2023-09-09T06:22:30.413Z,98031.16
2023-09-09T06:25:03.272Z,98039.16
2023-09-09T06:27:33.599Z,98036.47
2023-09-09T06:30:03.987Z,98030.94
2023-09-09T06:32:34.415Z,98038.50
2023-09-09T06:35:04.806Z,98034.28
2023-09-09T06:37:35.205Z,98036.91
2023-09-09T06:40:09.356Z,98037.78
2023-09-09T06:42:39.663Z,98042.66
2023-09-09T06:45:12.746Z,98041.81
2023-09-09T06:47:43.104Z,98041.44
2023-09-09T06:50:13.949Z,98042.31
2023-09-09T06:52:46.047Z,98040.84
2023-09-09T06:55:19.084Z,98041.81
2023-09-09T06:57:49.790Z,98040.16
2023-09-09T07:00:31.073Z,98035.28
2023-09-09T07:03:01.281Z,98045.91
2023-09-09T07:05:31.565Z,98047.22
2023-09-09T07:08:01.853Z,98042.84
2023-09-09T07:10:34.717Z,98052.69
2023-09-09T07:13:04.941Z,98050.22
2023-09-09T07:15:40.345Z,98051.69
2023-09-09T07:18:19.203Z,98051.44
2023-09-09T07:20:50.370Z,98048.38
2023-09-09T07:23:23.971Z,98053.06
2023-09-09T07:25:56.986Z,98048.56
2023-09-09T07:28:27.347Z,98046.16
2023-09-09T07:31:05.676Z,98055.84
2023-09-09T07:33:36.633Z,98047.16
2023-09-09T07:36:07.319Z,98045.34
2023-09-09T07:38:37.602Z,98044.13
2023-09-09T07:41:10.678Z,98045.28
2023-09-09T07:43:41.331Z,98047.13
2023-09-09T07:46:12.435Z,98042.13
2023-09-09T07:48:42.620Z,98041.13
2023-09-09T07:51:12.880Z,98034.19
2023-09-09T07:53:43.141Z,98028.47
2023-09-09T07:56:16.014Z,98031.00
2023-09-09T07:58:46.279Z,98032.66
2023-09-09T08:01:17.205Z,98037.16
2023-09-09T08:03:47.605Z,98025.34
2023-09-09T08:06:17.849Z,98025.78
2023-09-09T08:08:49.079Z,98034.63
2023-09-09T08:11:22.025Z,98018.53
2023-09-09T08:13:52.278Z,98017.97
2023-09-09T08:16:22.623Z,98018.56
2023-09-09T08:18:52.998Z,98024.03
2023-09-09T08:21:23.225Z,98017.47
2023-09-09T08:23:53.802Z,98019.63
2023-09-09T08:26:26.738Z,98019.84
2023-09-09T08:28:56.848Z,98011.81
2023-09-09T08:31:27.369Z,98016.00
2023-09-09T08:34:00.227Z,98014.41
2023-09-09T08:36:30.675Z,98017.09
2023-09-09T08:39:00.939Z,98009.66
2023-09-09T08:41:44.224Z,98007.28
2023-09-09T08:44:19.391Z,98002.28
2023-09-09T08:46:49.613Z,98002.50
2023-09-09T08:49:21.779Z,98010.66
2023-09-09T08:51:57.348Z,98010.91
2023-09-09T08:54:27.793Z,98007.06
2023-09-09T08:57:04.694Z,98009.56
2023-09-09T08:59:36.148Z,98003.56
2023-09-09T09:02:10.175Z,98003.16
2023-09-09T09:04:42.682Z,98008.56
2023-09-09T09:07:18.629Z,98007.53
2023-09-09T09:09:51.574Z,98009.22
2023-09-09T09:12:26.801Z,98008.00
2023-09-09T09:14:57.013Z,97999.69
2023-09-09T09:17:27.845Z,98002.06
2023-09-09T09:19:58.071Z,97999.81
2023-09-09T09:22:29.644Z,98001.66
2023-09-09T09:25:05.620Z,97996.78
2023-09-09T09:27:43.709Z,97996.50
2023-09-09T09:30:18.198Z,98001.88
2023-09-09T09:32:48.647Z,98006.16
2023-09-09T09:35:26.646Z,98000.09
2023-09-09T09:37:59.867Z,98002.78
2023-09-09T09:40:30.897Z,98004.06
2023-09-09T09:43:03.736Z,98001.56
2023-09-09T09:45:34.699Z,98005.94
2023-09-09T09:48:04.963Z,97998.41
2023-09-09T09:50:36.293Z,97993.31
2023-09-09T09:53:09.366Z,98000.28
2023-09-09T09:55:40.626Z,98003.56
2023-09-09T09:58:13.672Z,97998.38
2023-09-09T10:00:44.380Z,97993.56
2023-09-09T10:03:16.946Z,97995.59
2023-09-09T10:05:49.057Z,97991.03
2023-09-09T10:08:23.134Z,97985.72
2023-09-09T10:10:58.184Z,97983.19
2023-09-09T10:13:55.452Z,97980.88
2023-09-09T10:16:27.257Z,97976.69
2023-09-09T10:18:58.420Z,97974.16
2023-09-09T10:21:40.347Z,97975.91
2023-09-09T10:24:50.694Z,97975.00
2023-09-09T10:27:21.405Z,97963.09
2023-09-09T10:29:59.599Z,97972.97
2023-09-09T10:32:30.613Z,97971.03
2023-09-09T10:35:08.184Z,97962.22
2023-09-09T10:37:47.964Z,97963.81
2023-09-09T10:40:53.918Z,97960.09
2023-09-09T10:46:18.743Z,97955.28
2023-09-09T10:48:50.754Z,97955.59
2023-09-09T10:51:21.067Z,97957.78
2023-09-09T10:54:09.920Z,97955.38
2023-09-09T10:56:48.999Z,97951.13
2023-09-09T10:59:20.406Z,97945.28
2023-09-09T11:02:12.800Z,97945.41
2023-09-09T11:04:44.041Z,97942.69
2023-09-09T11:07:17.626Z,97936.59
2023-09-09T11:10:06.744Z,97933.97
2023-09-09T11:12:38.419Z,97934.66
2023-09-09T11:18:28.588Z,97947.22
2023-09-09T11:21:37.034Z,97931.03
2023-09-09T11:24:08.174Z,97931.63
2023-09-09T11:26:57.263Z,97938.59
2023-09-09T11:29:48.625Z,97937.53
2023-09-09T11:32:29.405Z,97932.41
2023-09-09T11:36:11.209Z,97932.25
2023-09-09T11:39:04.924Z,97932.84
2023-09-09T11:41:50.179Z,97926.59
2023-09-09T11:44:52.683Z,97924.97
2023-09-09T11:47:23.191Z,97926.88
2023-09-09T11:49:53.421Z,97922.75
2023-09-09T11:52:29.969Z,97920.66
2023-09-09T11:55:04.922Z,97921.41
2023-09-09T11:58:00.778Z,97911.94
2023-09-09T12:00:31.159Z,97916.38
2023-09-09T12:03:01.459Z,97918.59
2023-09-09T12:05:33.662Z,97914.94
2023-09-09T12:08:09.157Z,97915.66
2023-09-09T12:10:40.573Z,97912.69
2023-09-09T12:13:10.940Z,97908.28
2023-09-09T12:15:43.752Z,97917.09
2023-09-09T12:18:25.432Z,97914.69
2023-09-09T12:21:05.730Z,97914.06
2023-09-09T12:23:46.743Z,97911.94
2023-09-09T12:26:19.227Z,97912.72
2023-09-09T12:29:08.632Z,97904.63
2023-09-09T12:32:03.507Z,97897.31
2023-09-09T12:34:34.141Z,97900.19
2023-09-09T12:37:07.785Z,97897.84
2023-09-09T12:42:29.726Z,97894.69
2023-09-09T12:45:00.021Z,97894.53
2023-09-09T12:47:32.860Z,97895.31
2023-09-09T12:50:05.584Z,97899.00
2023-09-09T12:52:36.071Z,97886.41
2023-09-09T12:56:12.377Z,97887.09
2023-09-09T12:58:45.062Z,97886.94
2023-09-09T13:01:15.459Z,97883.81
2023-09-09T13:03:46.320Z,97889.84
2023-09-09T13:06:16.568Z,97882.31
2023-09-09T13:08:46.885Z,97885.41
2023-09-09T13:11:21.862Z,97884.81
2023-09-09T13:14:01.396Z,97883.50
2023-09-09T13:16:39.249Z,97879.81
2023-09-09T13:19:11.810Z,97873.84
2023-09-09T13:21:44.795Z,97882.13
2023-09-09T13:24:16.438Z,97879.47
2023-09-09T13:26:49.510Z,97877.31
2023-09-09T13:29:26.096Z,97870.69
2023-09-09T13:31:56.939Z,97872.97
2023-09-09T13:34:28.856Z,97875.81
2023-09-09T13:37:01.187Z,97872.16
2023-09-09T13:39:31.467Z,97861.13
2023-09-09T13:42:11.365Z,97861.06
2023-09-09T13:45:07.517Z,97868.47
2023-09-09T13:47:34.545Z,97867.00
2023-09-09T13:50:06.014Z,97872.25
2023-09-09T13:52:41.865Z,97867.84
2023-09-09T13:55:19.408Z,97863.41
2023-09-09T13:57:52.608Z,97865.69
2023-09-09T14:00:23.267Z,97862.00
2023-09-09T14:02:54.787Z,97861.97
2023-09-09T14:05:30.519Z,97862.75
2023-09-09T14:08:03.898Z,97867.19
2023-09-09T14:14:01.518Z,97864.94
2023-09-09T14:16:41.599Z,97856.91
2023-09-09T14:19:12.475Z,97861.88
2023-09-09T14:21:47.327Z,97861.88
2023-09-09T14:24:17.673Z,97859.63
2023-09-09T14:26:56.090Z,97849.41
2023-09-09T14:29:37.427Z,97858.25
2023-09-09T14:32:09.359Z,97849.44
2023-09-09T14:34:43.010Z,97848.72
2023-09-09T14:37:13.427Z,97847.22
2023-09-09T14:39:43.769Z,97846.47
2023-09-09T14:42:14.018Z,97848.66
2023-09-09T14:44:47.035Z,97846.47
2023-09-09T14:47:17.519Z,97840.47
2023-09-09T14:49:47.730Z,97848.94
2023-09-09T14:52:17.931Z,97847.16
2023-09-09T14:54:48.106Z,97848.47
2023-09-09T14:57:18.233Z,97843.59
2023-09-09T14:59:51.137Z,97847.28
2023-09-09T15:02:21.448Z,97846.00
2023-09-09T15:04:51.784Z,97837.47
2023-09-09T15:07:22.321Z,97844.56
2023-09-09T15:09:52.671Z,97846.41
2023-09-09T15:12:22.934Z,97842.78
2023-09-09T15:14:55.865Z,97840.31
2023-09-09T15:17:26.246Z,97839.91
2023-09-09T15:20:00.262Z,97841.81
2023-09-09T15:22:30.533Z,97836.88
2023-09-09T15:25:00.797Z,97844.81
2023-09-09T15:27:32.002Z,97846.00
2023-09-09T15:30:04.868Z,97851.50
2023-09-09T15:32:35.139Z,97852.78
2023-09-09T15:35:05.459Z,97851.41
2023-09-09T15:37:35.660Z,97851.53
2023-09-09T15:40:06.060Z,97850.94
2023-09-09T15:42:38.674Z,97845.09
2023-09-09T15:45:12.349Z,97846.22
2023-09-09T15:47:42.591Z,97851.44
2023-09-09T15:50:13.710Z,97854.69
2023-09-09T15:52:43.931Z,97844.91
2023-09-09T15:55:14.301Z,97851.06
2023-09-09T15:57:44.572Z,97848.88
2023-09-09T16:00:17.748Z,97845.00
2023-09-09T16:02:48.055Z,97841.69
2023-09-09T16:05:18.468Z,97847.66
2023-09-09T16:07:48.673Z,97852.00
2023-09-09T16:10:19.122Z,97855.09
2023-09-09T16:12:49.383Z,97855.94
2023-09-09T16:15:22.325Z,97854.25
2023-09-09T16:17:52.576Z,97850.78
2023-09-09T16:20:22.926Z,97858.41
2023-09-09T16:22:53.312Z,97857.59
2023-09-09T16:25:25.565Z,97866.88
2023-09-09T16:27:55.806Z,97860.25
2023-09-09T16:30:28.630Z,97869.25
2023-09-09T16:32:58.992Z,97866.25
2023-09-09T16:35:30.249Z,97864.50
2023-09-09T16:38:00.736Z,97861.72
2023-09-09T16:40:31.058Z,97869.59
2023-09-09T16:43:01.355Z,97879.38
2023-09-09T16:45:34.209Z,97874.38
2023-09-09T16:48:06.376Z,97880.34
2023-09-09T16:50:37.774Z,97877.59
2023-09-09T16:53:08.885Z,97879.28
2023-09-09T16:55:39.146Z,97879.97
2023-09-09T16:58:09.411Z,97884.38
2023-09-09T17:00:42.306Z,97882.91
2023-09-09T17:03:12.622Z,97887.53
2023-09-09T17:05:47.483Z,97880.22
2023-09-09T17:08:17.736Z,97890.06
2023-09-09T17:10:48.045Z,97891.75
2023-09-09T17:13:18.540Z,97887.28
2023-09-09T17:15:52.074Z,97898.13
2023-09-09T17:18:22.374Z,97903.72
2023-09-09T17:20:52.607Z,97899.66
2023-09-09T17:23:22.775Z,97899.22
2023-09-09T17:25:53.003Z,97904.31
2023-09-09T17:28:23.336Z,97903.72
2023-09-09T17:30:56.153Z,97901.63
2023-09-09T17:33:26.519Z,97907.50
2023-09-09T17:35:56.848Z,97902.69
2023-09-09T17:38:27.261Z,97904.16
2023-09-09T17:40:57.538Z,97907.13
2023-09-09T17:43:27.917Z,97905.19
2023-09-09T17:46:04.247Z,97911.78
2023-09-09T17:48:34.545Z,97909.06
2023-09-09T17:51:04.866Z,97911.31
2023-09-09T17:53:35.093Z,97913.53
2023-09-09T17:56:05.341Z,97910.50
2023-09-09T17:58:35.979Z,97915.88
2023-09-09T18:01:09.487Z,97925.09
2023-09-09T18:03:41.090Z,97920.28
2023-09-09T18:06:11.273Z,97926.88
2023-09-09T18:08:41.527Z,97931.91
2023-09-09T18:11:11.689Z,97934.97
2023-09-09T18:13:41.971Z,97930.28
2023-09-09T18:16:15.081Z,97936.25
2023-09-09T18:18:45.317Z,97931.50
2023-09-09T18:21:15.719Z,97937.19
2023-09-09T18:23:45.977Z,97938.59
2023-09-09T18:26:16.327Z,97942.13
2023-09-09T18:28:46.640Z,97943.91
2023-09-09T18:31:20.816Z,97952.53
2023-09-09T18:33:51.207Z,97947.69
2023-09-09T18:36:23.017Z,97944.91
2023-09-09T18:38:53.390Z,97946.69
2023-09-09T18:41:24.331Z,97947.88
2023-09-09T18:43:54.601Z,97950.38
2023-09-09T18:46:27.834Z,97953.31
2023-09-09T18:48:58.234Z,97953.94
2023-09-09T18:51:28.435Z,97959.72
2023-09-09T18:53:58.627Z,97953.16
2023-09-09T18:56:29.864Z,97955.09
2023-09-09T18:59:00.237Z,97961.78
2023-09-09T19:01:33.638Z,97967.94
2023-09-09T19:04:04.055Z,97963.09
2023-09-09T19:06:34.388Z,97961.06
2023-09-09T19:09:04.637Z,97967.69
2023-09-09T19:11:34.958Z,97964.91
2023-09-09T19:14:05.280Z,97964.09
2023-09-09T19:16:39.197Z,97956.75
2023-09-09T19:19:09.558Z,97958.88
2023-09-09T19:21:39.850Z,97969.06
2023-09-09T19:24:10.866Z,97965.75
2023-09-09T19:26:42.135Z,97964.94
2023-09-09T19:29:12.550Z,97968.91
2023-09-09T19:31:45.468Z,97974.75
2023-09-09T19:34:15.699Z,97969.81
2023-09-09T19:36:47.721Z,97972.13
2023-09-09T19:39:18.159Z,97970.47
2023-09-09T19:41:49.884Z,97969.50
2023-09-09T19:44:20.182Z,97969.97
2023-09-09T19:46:53.012Z,97965.09
2023-09-09T19:49:23.344Z,97968.91
2023-09-09T19:51:53.612Z,97974.94
2023-09-09T19:54:23.808Z,97974.06
2023-09-09T19:56:54.052Z,97979.34
2023-09-09T19:59:24.480Z,97980.19
2023-09-09T20:01:57.377Z,97974.53
2023-09-09T20:04:27.854Z,97981.75
2023-09-09T20:06:58.165Z,97984.81
2023-09-09T20:09:28.425Z,97987.28
2023-09-09T20:11:58.632Z,97982.38
2023-09-09T20:14:29.164Z,97984.66
2023-09-09T20:17:02.004Z,97990.69
2023-09-09T20:19:32.380Z,97985.59
2023-09-09T20:22:02.644Z,97991.84
2023-09-09T20:24:33.338Z,97997.50
2023-09-09T20:27:03.622Z,97992.97
2023-09-09T20:29:34.539Z,97995.59
2023-09-09T20:32:08.610Z,97995.59
2023-09-09T20:34:39.002Z,97988.03
2023-09-09T20:37:09.116Z,97992.38
2023-09-09T20:39:40.091Z,98002.00
2023-09-09T20:42:10.893Z,97993.69
2023-09-09T20:44:41.100Z,97993.69
2023-09-09T20:47:14.041Z,97994.44
2023-09-09T20:49:44.406Z,97994.06
2023-09-09T20:52:12.353Z,98000.09
2023-09-09T20:54:42.946Z,97999.53
2023-09-09T20:57:13.396Z,98001.00
2023-09-09T20:59:46.660Z,98000.81
2023-09-09T21:02:19.604Z,98006.66
2023-09-09T21:04:50.090Z,97997.38
2023-09-09T21:07:20.427Z,98006.81
2023-09-09T21:09:50.628Z,97994.34
2023-09-09T21:12:20.817Z,97994.91
2023-09-09T21:14:54.369Z,98008.66
2023-09-09T21:17:27.662Z,97995.97
2023-09-09T21:19:58.862Z,97989.34
2023-09-09T21:22:29.650Z,97994.25
2023-09-09T21:25:00.164Z,97994.97
2023-09-09T21:27:35.477Z,97997.75
2023-09-09T21:30:07.095Z,97993.78
2023-09-09T21:32:41.971Z,97996.81
2023-09-09T21:35:30.646Z,97995.31
2023-09-09T21:38:11.683Z,97997.16
2023-09-09T21:40:54.047Z,98000.16
2023-09-09T21:43:37.629Z,97998.47
2023-09-09T21:46:15.532Z,97992.75
2023-09-09T21:49:06.944Z,97987.06
2023-09-09T21:52:03.368Z,97993.59
2023-09-09T21:54:54.926Z,97988.84
2023-09-09T21:57:25.376Z,97993.53
2023-09-09T21:59:57.191Z,97992.22
2023-09-09T22:02:27.832Z,97991.63
2023-09-09T22:04:58.752Z,97985.78
2023-09-09T22:07:29.314Z,97987.25
2023-09-09T22:10:02.270Z,97985.34
2023-09-09T22:12:34.134Z,97982.44
2023-09-09T22:15:05.297Z,97982.06
2023-09-09T22:17:37.651Z,97985.00
2023-09-09T22:20:13.432Z,97986.53
2023-09-09T22:22:44.374Z,97992.59
2023-09-09T22:25:18.621Z,97996.41
2023-09-09T22:27:49.065Z,97993.09
2023-09-09T22:30:19.309Z,97995.47
2023-09-09T22:32:49.960Z,97994.44
2023-09-09T22:35:28.224Z,97997.50
2023-09-09T22:38:00.492Z,98002.09
2023-09-09T22:40:34.467Z,97995.13
2023-09-09T22:43:04.961Z,97996.50
2023-09-09T22:45:35.581Z,97996.72
2023-09-09T22:48:06.650Z,97999.97
2023-09-09T22:50:37.742Z,97993.97
2023-09-09T22:53:08.394Z,97998.81
2023-09-09T22:55:41.645Z,97998.13
2023-09-09T22:58:12.987Z,97996.59
2023-09-09T23:00:43.506Z,97999.69
2023-09-09T23:03:13.763Z,97999.50
2023-09-09T23:05:44.464Z,97993.28
2023-09-09T23:08:15.090Z,97995.59
2023-09-09T23:10:48.276Z,97990.16
2023-09-09T23:13:18.781Z,97986.78
2023-09-09T23:15:49.713Z,97983.41
2023-09-09T23:18:20.269Z,97984.31
2023-09-09T23:20:50.504Z,97988.03
2023-09-09T23:23:21.166Z,97990.03
2023-09-09T23:25:59.974Z,97992.38
2023-09-09T23:28:30.775Z,97982.56
2023-09-09T23:31:02.451Z,97988.34
2023-09-09T23:33:35.252Z,97985.84
2023-09-09T23:36:06.948Z,97980.69
2023-09-09T23:38:37.847Z,97986.47
2023-09-09T23:41:12.294Z,97978.88
2023-09-09T23:43:42.953Z,97987.91
2023-09-09T23:46:14.098Z,97983.34
2023-09-09T23:48:44.614Z,97977.44
2023-09-09T23:51:15.011Z,97979.97
2023-09-09T23:53:45.541Z,97972.38
2023-09-09T23:56:18.344Z,97981.53
2023-09-09T23:58:49.673Z,97976.03
